createdAt,value
2022-11-26T00:00:01.840Z,23.60
2022-11-26T00:01:01.821Z,16.90
2022-11-26T00:02:01.833Z,19.70
2022-11-26T00:03:01.895Z,22.70
2022-11-26T00:04:01.744Z,22.60
2022-11-26T00:05:01.799Z,27.70
2022-11-26T00:06:01.786Z,18.60
2022-11-26T00:07:01.751Z,16.90
2022-11-26T00:08:01.781Z,18.20
2022-11-26T00:09:01.736Z,17.40
2022-11-26T00:10:01.777Z,15.50
2022-11-26T00:11:01.725Z,15.50
2022-11-26T00:12:01.709Z,15.40
2022-11-26T00:13:01.717Z,12.40
2022-11-26T00:14:01.736Z,16.40
2022-11-26T00:15:01.686Z,16.10
2022-11-26T00:16:01.695Z,12.40
2022-11-26T00:17:01.768Z,16.30
2022-11-26T00:18:01.689Z,12.30
2022-11-26T00:19:01.711Z,13.30
2022-11-26T00:20:01.701Z,18.00
2022-11-26T00:21:01.690Z,15.70
2022-11-26T00:22:01.672Z,15.60
2022-11-26T00:23:01.644Z,14.90
2022-11-26T00:24:01.640Z,20.20
2022-11-26T00:25:01.703Z,20.60
2022-11-26T00:26:01.658Z,27.70
2022-11-26T00:27:01.651Z,19.10
2022-11-26T00:28:01.631Z,18.50
2022-11-26T00:29:01.662Z,17.30
2022-11-26T00:30:01.604Z,16.20
2022-11-26T00:31:01.627Z,17.90
2022-11-26T00:32:01.621Z,19.40
2022-11-26T00:33:01.592Z,23.00
2022-11-26T00:34:01.584Z,17.40
2022-11-26T00:35:01.674Z,19.70
2022-11-26T00:36:01.589Z,25.00
2022-11-26T00:37:01.574Z,15.80
2022-11-26T00:38:01.592Z,17.20
2022-11-26T00:39:01.558Z,24.70
2022-11-26T00:40:01.638Z,25.00
2022-11-26T00:41:01.553Z,32.20
2022-11-26T00:42:01.637Z,26.60
2022-11-26T00:43:02.189Z,17.80
2022-11-26T00:44:02.528Z,25.50
2022-11-26T00:45:02.563Z,21.10
2022-11-26T00:46:01.560Z,14.20
2022-11-26T00:47:01.558Z,18.60
2022-11-26T00:48:01.510Z,23.10
2022-11-26T00:49:01.547Z,20.50
2022-11-26T00:50:01.607Z,23.90
2022-11-26T00:51:01.544Z,22.80
2022-11-26T00:52:01.536Z,14.40
2022-11-26T00:53:01.539Z,16.70
2022-11-26T00:54:01.507Z,22.00
2022-11-26T00:55:01.475Z,21.70
2022-11-26T00:56:01.510Z,24.20
2022-11-26T00:57:01.454Z,16.10
2022-11-26T00:58:01.528Z,26.70
2022-11-26T00:59:01.448Z,20.20
2022-11-26T01:00:01.497Z,23.00
2022-11-26T01:01:01.514Z,17.60
2022-11-26T01:02:01.576Z,31.10
2022-11-26T01:03:01.424Z,18.00
2022-11-26T01:04:01.433Z,16.50
2022-11-26T01:05:01.432Z,15.40
2022-11-26T01:06:01.444Z,20.60
2022-11-26T01:07:01.391Z,28.20
2022-11-26T01:08:01.435Z,23.20
2022-11-26T01:09:01.417Z,16.80
2022-11-26T01:10:01.391Z,28.80
2022-11-26T01:11:01.383Z,25.90
2022-11-26T01:12:01.415Z,30.80
2022-11-26T01:13:01.444Z,22.90
2022-11-26T01:14:01.430Z,23.20
2022-11-26T01:15:01.416Z,19.70
2022-11-26T01:16:01.520Z,29.50
2022-11-26T01:17:01.413Z,36.60
2022-11-26T01:18:01.354Z,30.60
2022-11-26T01:19:01.382Z,28.80
2022-11-26T01:20:01.335Z,20.80
2022-11-26T01:21:01.414Z,18.30
2022-11-26T01:22:01.319Z,17.80
2022-11-26T01:23:01.313Z,21.80
2022-11-26T01:24:01.314Z,21.50
2022-11-26T01:25:01.341Z,22.60
2022-11-26T01:26:06.142Z,19.30
2022-11-26T01:27:03.282Z,21.90
2022-11-26T01:28:01.328Z,16.90
2022-11-26T01:29:01.247Z,21.20
2022-11-26T01:30:01.320Z,22.70
2022-11-26T01:31:01.312Z,24.00
2022-11-26T01:32:01.434Z,16.40
2022-11-26T01:33:01.272Z,21.50
2022-11-26T01:34:01.314Z,14.10
2022-11-26T01:35:01.245Z,14.60
2022-11-26T01:36:01.227Z,12.90
2022-11-26T01:37:01.255Z,15.20
2022-11-26T01:38:01.212Z,13.60
2022-11-26T01:39:01.224Z,23.90
2022-11-26T01:40:01.227Z,21.60
2022-11-26T01:41:01.224Z,20.10
2022-11-26T01:42:01.220Z,12.90
2022-11-26T01:43:01.215Z,25.70
2022-11-26T01:44:01.185Z,18.20
2022-11-26T01:45:01.192Z,19.20
2022-11-26T01:46:01.210Z,25.50
2022-11-26T01:47:01.278Z,29.70
2022-11-26T01:48:01.179Z,30.00
2022-11-26T01:49:01.166Z,22.80
2022-11-26T01:50:01.144Z,15.80
2022-11-26T01:51:01.159Z,24.70
2022-11-26T01:52:01.134Z,28.20
2022-11-26T01:53:01.177Z,23.20
2022-11-26T01:54:01.132Z,19.30
2022-11-26T01:55:01.115Z,19.70
2022-11-26T01:56:01.129Z,18.40
2022-11-26T01:57:01.110Z,14.70
2022-11-26T01:58:01.139Z,24.40
2022-11-26T01:59:01.100Z,23.40
2022-11-26T02:00:01.086Z,22.10
2022-11-26T02:01:01.137Z,26.20
2022-11-26T02:02:01.182Z,21.50
2022-11-26T02:03:01.102Z,26.20
2022-11-26T02:04:01.071Z,24.50
2022-11-26T02:05:01.080Z,21.20
2022-11-26T02:06:01.053Z,15.20
2022-11-26T02:07:01.046Z,25.90
2022-11-26T02:08:01.065Z,29.40
2022-11-26T02:09:01.054Z,22.10
2022-11-26T02:10:01.038Z,20.10
2022-11-26T02:11:01.040Z,18.60
2022-11-26T02:12:01.068Z,15.30
2022-11-26T02:13:01.028Z,23.60
2022-11-26T02:14:01.039Z,26.80
2022-11-26T02:15:01.053Z,30.50
2022-11-26T02:16:01.024Z,22.90
2022-11-26T02:17:00.992Z,19.80
2022-11-26T02:18:00.980Z,25.10
2022-11-26T02:19:00.980Z,23.40
2022-11-26T02:20:01.120Z,24.40
2022-11-26T02:21:00.973Z,17.70
2022-11-26T02:22:01.010Z,29.90
2022-11-26T02:23:00.946Z,22.60
2022-11-26T02:24:00.969Z,25.80
2022-11-26T02:25:00.981Z,28.10
2022-11-26T02:26:00.937Z,24.80
2022-11-26T02:27:00.921Z,24.50
2022-11-26T02:28:00.940Z,23.80
2022-11-26T02:29:00.933Z,16.10
2022-11-26T02:30:00.905Z,21.20
2022-11-26T02:31:00.887Z,14.20
2022-11-26T02:32:00.928Z,17.30
2022-11-26T02:33:00.869Z,19.30
2022-11-26T02:34:00.931Z,14.40
2022-11-26T02:35:00.884Z,17.50
2022-11-26T02:36:00.888Z,23.20
2022-11-26T02:37:00.873Z,15.70
2022-11-26T02:38:00.843Z,22.40
2022-11-26T02:39:00.855Z,19.70
2022-11-26T02:40:00.846Z,13.20
2022-11-26T02:41:00.821Z,16.10
2022-11-26T02:42:00.838Z,24.20
2022-11-26T02:43:00.806Z,14.90
2022-11-26T02:44:00.811Z,13.00
2022-11-26T02:45:00.817Z,18.90
2022-11-26T02:46:00.858Z,13.40
2022-11-26T02:47:00.834Z,15.70
2022-11-26T02:48:00.792Z,18.20
2022-11-26T02:49:00.793Z,17.50
2022-11-26T02:50:00.777Z,18.00
2022-11-26T02:51:00.782Z,17.90
2022-11-26T02:52:00.809Z,25.20
2022-11-26T02:53:00.774Z,23.50
2022-11-26T02:54:00.729Z,26.60
2022-11-26T02:55:00.744Z,26.60
2022-11-26T02:56:00.744Z,26.90
2022-11-26T02:57:00.736Z,13.40
2022-11-26T02:58:00.779Z,13.40
2022-11-26T02:59:00.736Z,12.20
2022-11-26T03:00:00.733Z,13.50
2022-11-26T03:01:00.773Z,12.80
2022-11-26T03:02:00.718Z,11.50
2022-11-26T03:03:00.680Z,10.70
2022-11-26T03:04:00.784Z,9.70
2022-11-26T03:05:00.704Z,10.00
2022-11-26T03:06:00.679Z,10.50
2022-11-26T03:07:00.677Z,11.00
2022-11-26T03:08:00.732Z,10.30
2022-11-26T03:09:00.675Z,10.70
2022-11-26T03:10:00.649Z,11.70
2022-11-26T03:11:00.643Z,12.30
2022-11-26T03:12:00.728Z,14.00
2022-11-26T03:13:00.655Z,9.20
2022-11-26T03:14:00.643Z,9.90
2022-11-26T03:15:00.620Z,17.20
2022-11-26T03:16:00.706Z,16.90
2022-11-26T03:17:00.656Z,20.10
2022-11-26T03:18:00.605Z,14.20
2022-11-26T03:19:00.590Z,23.10
2022-11-26T03:20:00.605Z,14.80
2022-11-26T03:21:00.617Z,22.00
2022-11-26T03:22:00.570Z,22.70
2022-11-26T03:23:00.615Z,16.80
2022-11-26T03:24:00.565Z,17.10
2022-11-26T03:25:00.560Z,16.80
2022-11-26T03:26:00.642Z,17.90
2022-11-26T03:27:00.587Z,13.30
2022-11-26T03:28:00.551Z,14.10
2022-11-26T03:29:00.532Z,13.20
2022-11-26T03:30:00.527Z,13.30
2022-11-26T03:31:00.530Z,14.40
2022-11-26T03:32:00.625Z,14.60
2022-11-26T03:33:00.499Z,14.30
2022-11-26T03:34:00.513Z,24.70
2022-11-26T03:35:00.492Z,20.50
2022-11-26T03:36:00.488Z,49.80
2022-11-26T03:37:00.523Z,40.90
2022-11-26T03:38:00.476Z,16.80
2022-11-26T03:39:00.494Z,18.20
2022-11-26T03:40:00.474Z,13.30
2022-11-26T03:41:00.453Z,15.00
2022-11-26T03:42:00.484Z,17.60
2022-11-26T03:43:00.451Z,15.20
2022-11-26T03:44:00.456Z,27.10
2022-11-26T03:45:00.437Z,26.90
2022-11-26T03:46:00.492Z,99.00
2022-11-26T03:47:00.447Z,46.40
2022-11-26T03:48:00.437Z,88.10
2022-11-26T03:49:00.404Z,152.60
2022-11-26T03:50:00.382Z,62.30
2022-11-26T03:51:00.415Z,44.30
2022-11-26T03:52:00.369Z,47.50
2022-11-26T03:53:00.404Z,37.20
2022-11-26T03:54:00.387Z,69.00
2022-11-26T03:55:00.388Z,38.20
2022-11-26T03:56:00.347Z,58.90
2022-11-26T03:57:00.353Z,46.10
2022-11-26T03:58:00.336Z,162.60
2022-11-26T03:59:00.324Z,97.60
2022-11-26T04:00:00.365Z,92.30
2022-11-26T04:01:00.361Z,240.90
2022-11-26T04:02:00.338Z,26.50
2022-11-26T04:03:00.352Z,28.20
2022-11-26T04:04:00.319Z,31.70
2022-11-26T04:05:00.319Z,248.90
2022-11-26T04:06:00.308Z,27.40
2022-11-26T04:07:00.305Z,15.40
2022-11-26T04:08:00.331Z,38.50
2022-11-26T04:09:00.263Z,34.50
2022-11-26T04:10:00.268Z,32.20
2022-11-26T04:11:00.283Z,52.90
2022-11-26T04:12:00.293Z,26.90
2022-11-26T04:13:00.277Z,70.20
2022-11-26T04:14:00.314Z,25.90
2022-11-26T04:15:00.287Z,31.60
2022-11-26T04:16:00.241Z,25.10
2022-11-26T04:17:00.369Z,36.50
2022-11-26T04:18:00.213Z,16.90
2022-11-26T04:19:00.217Z,78.80
2022-11-26T04:20:00.221Z,16.70
2022-11-26T04:21:00.212Z,24.20
2022-11-26T04:22:00.250Z,20.00
2022-11-26T04:23:00.195Z,22.50
2022-11-26T04:24:00.210Z,24.10
2022-11-26T04:25:00.171Z,71.50
2022-11-26T04:26:00.164Z,14.90
2022-11-26T04:27:00.185Z,15.80
2022-11-26T04:28:00.155Z,14.20
2022-11-26T04:29:00.149Z,83.50
2022-11-26T04:30:00.155Z,16.60
2022-11-26T04:31:00.137Z,15.40
2022-11-26T04:32:00.235Z,14.90
2022-11-26T04:33:00.144Z,16.80
2022-11-26T04:34:00.149Z,16.70
2022-11-26T04:35:00.124Z,25.50
2022-11-26T04:36:00.112Z,37.30
2022-11-26T04:37:00.090Z,30.30
2022-11-26T04:38:00.139Z,175.80
2022-11-26T04:39:00.124Z,65.40
2022-11-26T04:40:00.094Z,27.70
2022-11-26T04:41:00.085Z,30.50
2022-11-26T04:42:00.103Z,22.60
2022-11-26T04:43:00.094Z,48.80
2022-11-26T04:44:00.075Z,43.60
2022-11-26T04:45:00.048Z,30.60
2022-11-26T04:46:00.153Z,23.20
2022-11-26T04:47:00.030Z,25.80
2022-11-26T04:48:00.049Z,42.10
2022-11-26T04:49:00.029Z,33.60
2022-11-26T04:50:00.011Z,15.30
2022-11-26T04:51:00.049Z,15.60
2022-11-26T04:52:00.009Z,15.30
2022-11-26T04:53:00.003Z,14.60
2022-11-26T04:54:03.008Z,13.80
2022-11-26T04:55:00.976Z,13.30
2022-11-26T04:55:59.998Z,30.00
2022-11-26T04:56:59.963Z,28.90
2022-11-26T04:57:59.966Z,20.30
2022-11-26T04:59:00.005Z,25.00
2022-11-26T04:59:59.979Z,24.80
2022-11-26T05:00:59.968Z,49.70
2022-11-26T05:01:59.938Z,18.40
2022-11-26T05:02:59.992Z,13.40
2022-11-26T05:03:59.936Z,26.30
2022-11-26T05:04:59.951Z,35.80
2022-11-26T05:05:59.909Z,36.70
2022-11-26T05:06:59.893Z,48.30
2022-11-26T05:07:59.932Z,26.80
2022-11-26T05:08:59.907Z,27.40
2022-11-26T05:09:59.901Z,51.00
2022-11-26T05:10:59.886Z,37.30
2022-11-26T05:11:59.862Z,26.40
2022-11-26T05:12:59.866Z,30.00
2022-11-26T05:13:59.869Z,42.10
2022-11-26T05:14:59.899Z,39.30
2022-11-26T05:15:59.850Z,37.60
2022-11-26T05:16:59.912Z,36.10
2022-11-26T05:17:59.829Z,36.30
2022-11-26T05:18:59.830Z,37.90
2022-11-26T05:19:59.899Z,30.70
2022-11-26T05:20:59.853Z,38.70
2022-11-26T05:21:59.806Z,31.70
2022-11-26T05:22:59.803Z,33.60
2022-11-26T05:23:59.817Z,24.80
2022-11-26T05:24:59.835Z,17.70
2022-11-26T05:25:59.834Z,29.90
2022-11-26T05:26:59.799Z,17.30
2022-11-26T05:27:59.773Z,22.50
2022-11-26T05:28:59.782Z,35.80
2022-11-26T05:29:59.760Z,61.80
2022-11-26T05:30:59.784Z,52.60
2022-11-26T05:31:59.869Z,167.10
2022-11-26T05:32:59.762Z,222.10
2022-11-26T05:33:59.748Z,159.70
2022-11-26T05:35:00.336Z,114.80
2022-11-26T05:36:00.725Z,176.70
2022-11-26T05:36:59.744Z,135.50
2022-11-26T05:37:59.732Z,145.00
2022-11-26T05:38:59.717Z,174.30
2022-11-26T05:39:59.725Z,127.80
2022-11-26T05:40:59.686Z,90.00
2022-11-26T05:42:02.524Z,103.10
2022-11-26T05:43:00.700Z,61.40
2022-11-26T05:43:59.695Z,59.70
2022-11-26T05:44:59.680Z,72.10
2022-11-26T05:45:59.757Z,137.40
2022-11-26T05:46:59.663Z,99.30
2022-11-26T05:47:59.685Z,57.70
2022-11-26T05:48:59.642Z,74.70
2022-11-26T05:49:59.648Z,30.90
2022-11-26T05:50:59.622Z,26.30
2022-11-26T05:51:59.630Z,15.60
2022-11-26T05:52:59.647Z,13.20
2022-11-26T05:53:59.820Z,14.20
2022-11-26T05:54:59.627Z,13.70
2022-11-26T05:55:59.595Z,24.00
2022-11-26T05:57:00.436Z,14.40
2022-11-26T05:58:00.633Z,14.50
2022-11-26T05:58:59.609Z,22.90
2022-11-26T05:59:59.586Z,15.40
2022-11-26T06:00:59.593Z,16.10
2022-11-26T06:02:00.663Z,20.90
2022-11-26T06:02:59.676Z,41.50
2022-11-26T06:03:59.587Z,20.90
2022-11-26T06:04:59.550Z,70.40
2022-11-26T06:05:59.560Z,23.90
2022-11-26T06:06:59.544Z,90.60
2022-11-26T06:07:59.568Z,51.70
2022-11-26T06:08:59.536Z,44.30
2022-11-26T06:09:59.550Z,54.00
2022-11-26T06:10:59.511Z,79.80
2022-11-26T06:11:59.496Z,89.00
2022-11-26T06:12:59.489Z,54.40
2022-11-26T06:13:59.488Z,61.70
2022-11-26T06:14:59.506Z,87.80
2022-11-26T06:15:59.502Z,69.10
2022-11-26T06:16:59.522Z,64.00
2022-11-26T06:17:59.462Z,72.20
2022-11-26T06:18:59.488Z,80.70
2022-11-26T06:19:59.540Z,63.80
2022-11-26T06:20:59.475Z,91.00
2022-11-26T06:21:59.438Z,151.10
2022-11-26T06:22:59.418Z,91.00
2022-11-26T06:23:59.938Z,58.00
2022-11-26T06:25:00.507Z,86.90
2022-11-26T06:25:59.416Z,95.10
2022-11-26T06:26:59.416Z,81.70
2022-11-26T06:27:59.400Z,150.30
2022-11-26T06:28:59.383Z,70.00
2022-11-26T06:29:59.400Z,101.80
2022-11-26T06:30:59.417Z,101.40
2022-11-26T06:31:59.405Z,91.70
2022-11-26T06:32:59.396Z,87.40
2022-11-26T06:33:59.397Z,276.20
2022-11-26T06:34:59.386Z,177.40
2022-11-26T06:35:59.335Z,122.70
2022-11-26T06:36:59.395Z,105.50
2022-11-26T06:37:59.340Z,119.10
2022-11-26T06:38:59.353Z,180.20
2022-11-26T06:39:59.305Z,126.90
2022-11-26T06:40:59.329Z,101.20
2022-11-26T06:41:59.281Z,93.50
2022-11-26T06:42:59.293Z,77.10
2022-11-26T06:43:59.314Z,63.70
2022-11-26T06:45:00.171Z,97.70
2022-11-26T06:46:00.420Z,58.30
2022-11-26T06:46:59.280Z,64.10
2022-11-26T06:47:59.280Z,67.40
2022-11-26T06:48:59.315Z,84.80
2022-11-26T06:49:59.249Z,100.00
2022-11-26T06:50:59.255Z,83.50
2022-11-26T06:51:59.229Z,61.10
2022-11-26T06:52:59.244Z,84.00
2022-11-26T06:53:59.236Z,91.50
2022-11-26T06:54:59.213Z,50.70
2022-11-26T06:55:59.219Z,82.60
2022-11-26T06:56:59.231Z,101.80
2022-11-26T06:57:59.236Z,150.90
2022-11-26T06:58:59.182Z,136.60
2022-11-26T06:59:59.211Z,159.70
2022-11-26T07:00:59.222Z,238.10
2022-11-26T07:01:59.247Z,113.00
2022-11-26T07:02:59.247Z,142.70
2022-11-26T07:03:59.193Z,175.80
2022-11-26T07:04:59.160Z,247.30
2022-11-26T07:05:59.179Z,270.20
2022-11-26T07:06:59.123Z,268.50
2022-11-26T07:07:59.209Z,119.60
2022-11-26T07:08:59.136Z,157.10
2022-11-26T07:09:59.106Z,315.60
2022-11-26T07:10:59.134Z,230.40
2022-11-26T07:11:59.119Z,282.70
2022-11-26T07:12:59.110Z,252.30
2022-11-26T07:13:59.121Z,386.50
2022-11-26T07:14:59.109Z,263.30
2022-11-26T07:15:59.153Z,218.60
2022-11-26T07:16:59.068Z,282.20
2022-11-26T07:17:59.049Z,306.40
2022-11-26T07:19:02.624Z,114.30
2022-11-26T07:20:00.051Z,139.30
2022-11-26T07:20:59.057Z,187.80
2022-11-26T07:21:59.043Z,110.10
2022-11-26T07:22:59.024Z,126.40
2022-11-26T07:23:59.012Z,130.90
2022-11-26T07:24:59.022Z,61.00
2022-11-26T07:25:59.025Z,106.60
2022-11-26T07:26:59.022Z,128.80
2022-11-26T07:27:58.994Z,127.20
2022-11-26T07:28:59.057Z,166.40
2022-11-26T07:29:59.017Z,83.50
2022-11-26T07:30:59.000Z,68.20
2022-11-26T07:31:59.003Z,169.50
2022-11-26T07:32:58.977Z,243.30
2022-11-26T07:33:58.952Z,133.30
2022-11-26T07:34:58.940Z,292.10
2022-11-26T07:35:58.981Z,253.40
2022-11-26T07:36:58.942Z,200.90
2022-11-26T07:37:58.986Z,470.00
2022-11-26T07:38:58.916Z,343.30
2022-11-26T07:39:58.924Z,190.70
2022-11-26T07:40:58.923Z,199.30
2022-11-26T07:41:58.931Z,284.00
2022-11-26T07:42:59.290Z,230.70
2022-11-26T07:43:58.881Z,243.70
2022-11-26T07:44:58.891Z,198.20
2022-11-26T07:45:58.904Z,124.30
2022-11-26T07:46:58.881Z,112.40
2022-11-26T07:47:58.898Z,105.80
2022-11-26T07:48:58.861Z,116.10
2022-11-26T07:49:58.840Z,353.80
2022-11-26T07:50:58.823Z,340.80
2022-11-26T07:51:58.840Z,403.90
2022-11-26T07:52:58.850Z,210.30
2022-11-26T07:53:58.829Z,52.50
2022-11-26T07:54:58.846Z,171.70
2022-11-26T07:55:58.810Z,204.10
2022-11-26T07:56:58.790Z,138.00
2022-11-26T07:57:58.797Z,190.00
2022-11-26T07:58:58.778Z,240.10
2022-11-26T07:59:58.811Z,130.30
2022-11-26T08:00:58.760Z,95.30
2022-11-26T08:01:58.962Z,75.90
2022-11-26T08:02:58.799Z,54.70
2022-11-26T08:03:58.753Z,106.30
2022-11-26T08:04:58.779Z,35.70
2022-11-26T08:05:58.734Z,37.30
2022-11-26T08:06:58.737Z,31.70
2022-11-26T08:07:58.785Z,38.10
2022-11-26T08:08:58.724Z,35.10
2022-11-26T08:09:58.766Z,60.90
2022-11-26T08:10:58.768Z,33.80
2022-11-26T08:11:58.747Z,52.70
2022-11-26T08:12:58.699Z,52.60
2022-11-26T08:13:58.713Z,67.50
2022-11-26T08:14:58.714Z,70.60
2022-11-26T08:15:58.748Z,57.40
2022-11-26T08:16:58.682Z,66.10
2022-11-26T08:17:58.688Z,44.00
2022-11-26T08:18:58.656Z,34.90
2022-11-26T08:19:58.667Z,127.50
2022-11-26T08:20:58.711Z,194.90
2022-11-26T08:21:58.656Z,99.90
2022-11-26T08:22:58.635Z,57.90
2022-11-26T08:23:58.638Z,65.90
2022-11-26T08:24:58.641Z,64.50
2022-11-26T08:26:21.593Z,234.50
2022-11-26T08:27:00.634Z,171.00
2022-11-26T08:27:58.604Z,86.90
2022-11-26T08:28:58.755Z,236.00
2022-11-26T08:29:58.596Z,96.60
2022-11-26T08:30:58.607Z,242.20
2022-11-26T08:31:58.666Z,261.60
2022-11-26T08:32:58.631Z,115.10
2022-11-26T08:33:58.627Z,120.40
2022-11-26T08:34:58.576Z,141.20
2022-11-26T08:36:07.035Z,85.40
2022-11-26T08:37:00.540Z,139.50
2022-11-26T08:37:58.579Z,229.80
2022-11-26T08:38:58.566Z,124.60
2022-11-26T08:39:58.521Z,226.50
2022-11-26T08:40:58.526Z,201.60
2022-11-26T08:41:58.532Z,184.60
2022-11-26T08:42:58.518Z,109.20
2022-11-26T08:44:07.404Z,160.30
2022-11-26T08:45:00.518Z,147.40
2022-11-26T08:45:58.501Z,205.40
2022-11-26T08:46:58.488Z,291.90
2022-11-26T08:47:58.472Z,111.20
2022-11-26T08:48:58.535Z,202.40
2022-11-26T08:49:58.512Z,171.00
2022-11-26T08:50:58.455Z,167.20
2022-11-26T08:51:58.450Z,102.00
2022-11-26T08:52:58.466Z,276.50
2022-11-26T08:53:58.419Z,94.40
2022-11-26T08:54:58.449Z,170.10
2022-11-26T08:56:00.449Z,131.00
2022-11-26T08:56:59.418Z,160.00
2022-11-26T08:57:58.399Z,175.10
2022-11-26T08:58:58.411Z,153.50
2022-11-26T08:59:58.512Z,145.70
2022-11-26T09:00:58.442Z,130.20
2022-11-26T09:01:58.444Z,63.90
2022-11-26T09:02:58.476Z,172.00
2022-11-26T09:03:58.386Z,301.80
2022-11-26T09:04:58.399Z,133.30
2022-11-26T09:05:58.572Z,339.70
2022-11-26T09:06:58.380Z,127.30
2022-11-26T09:07:58.414Z,195.00
2022-11-26T09:08:58.356Z,292.30
2022-11-26T09:09:58.332Z,294.70
2022-11-26T09:10:58.325Z,116.60
2022-11-26T09:11:58.345Z,175.70
2022-11-26T09:12:58.313Z,100.70
2022-11-26T09:13:58.299Z,176.90
2022-11-26T09:14:58.351Z,106.70
2022-11-26T09:15:58.274Z,129.50
2022-11-26T09:16:58.397Z,79.60
2022-11-26T09:17:58.277Z,82.90
2022-11-26T09:18:58.268Z,104.20
2022-11-26T09:19:58.262Z,216.20
2022-11-26T09:20:58.314Z,133.90
2022-11-26T09:21:58.328Z,171.60
2022-11-26T09:22:58.246Z,64.80
2022-11-26T09:23:58.242Z,87.40
2022-11-26T09:24:58.231Z,84.40
2022-11-26T09:25:58.233Z,96.00
2022-11-26T09:27:01.545Z,45.30
2022-11-26T09:27:59.632Z,59.90
2022-11-26T09:28:58.216Z,100.40
2022-11-26T09:29:58.213Z,120.70
2022-11-26T09:30:58.226Z,137.00
2022-11-26T09:33:00.261Z,61.70
2022-11-26T09:33:58.206Z,50.50
2022-11-26T09:34:58.167Z,63.30
2022-11-26T09:35:58.175Z,50.50
2022-11-26T09:36:58.171Z,65.40
2022-11-26T09:37:58.185Z,81.00
2022-11-26T09:38:58.150Z,76.00
2022-11-26T09:39:58.174Z,70.90
2022-11-26T09:40:58.171Z,65.10
2022-11-26T09:41:58.148Z,85.30
2022-11-26T09:42:58.154Z,63.80
2022-11-26T09:43:58.130Z,79.30
2022-11-26T09:44:58.138Z,71.00
2022-11-26T09:45:58.170Z,88.70
2022-11-26T09:47:11.565Z,65.00
2022-11-26T09:48:00.095Z,59.70
2022-11-26T09:49:01.361Z,78.10
2022-11-26T09:50:00.142Z,90.20
2022-11-26T09:50:58.143Z,161.10
2022-11-26T09:51:58.175Z,90.00
2022-11-26T09:52:58.068Z,161.90
2022-11-26T09:53:58.061Z,92.10
2022-11-26T09:54:58.055Z,65.40
2022-11-26T09:55:58.045Z,62.60
2022-11-26T09:56:58.070Z,68.80
2022-11-26T09:57:58.044Z,56.50
2022-11-26T09:58:58.032Z,66.60
2022-11-26T09:59:58.024Z,71.90
2022-11-26T10:00:58.151Z,91.80
2022-11-26T10:01:58.061Z,68.30
2022-11-26T10:02:58.063Z,78.10
2022-11-26T10:03:58.009Z,118.70
2022-11-26T10:04:57.986Z,65.50
2022-11-26T10:05:58.215Z,72.00
2022-11-26T10:06:58.020Z,69.20
2022-11-26T10:07:58.037Z,73.20
2022-11-26T10:08:57.970Z,55.00
2022-11-26T10:09:57.985Z,66.10
2022-11-26T10:11:03.594Z,67.30
2022-11-26T10:11:59.969Z,83.90
2022-11-26T10:13:17.941Z,73.00
2022-11-26T10:13:59.938Z,60.30
2022-11-26T10:14:57.974Z,87.30
2022-11-26T10:15:58.014Z,61.20
2022-11-26T10:16:58.924Z,56.90
2022-11-26T10:17:57.906Z,63.80
2022-11-26T10:18:57.937Z,55.00
2022-11-26T10:19:57.892Z,68.70
2022-11-26T10:20:57.896Z,64.80
2022-11-26T10:21:59.268Z,51.00
2022-11-26T10:22:58.902Z,70.50
2022-11-26T10:23:57.909Z,64.70
2022-11-26T10:24:57.870Z,43.40
2022-11-26T10:25:57.856Z,43.00
2022-11-26T10:26:57.897Z,46.60
2022-11-26T10:27:57.847Z,49.10
2022-11-26T10:28:57.867Z,37.40
2022-11-26T10:29:57.956Z,49.60
2022-11-26T10:30:57.823Z,42.60
2022-11-26T10:31:57.847Z,45.90
2022-11-26T10:32:57.849Z,41.30
2022-11-26T10:33:57.821Z,44.40
2022-11-26T10:34:57.801Z,32.80
2022-11-26T10:35:57.801Z,36.20
2022-11-26T10:36:57.793Z,29.20
2022-11-26T10:37:57.834Z,37.30
2022-11-26T10:38:57.795Z,43.40
2022-11-26T10:40:01.995Z,40.90
2022-11-26T10:40:59.787Z,42.70
2022-11-26T10:41:57.799Z,34.80
2022-11-26T10:42:57.805Z,41.60
2022-11-26T10:43:57.754Z,32.50
2022-11-26T10:44:57.911Z,37.90
2022-11-26T10:45:57.776Z,33.30
2022-11-26T10:46:57.834Z,31.10
2022-11-26T10:47:57.722Z,31.60
2022-11-26T10:48:57.738Z,37.30
2022-11-26T10:49:57.764Z,36.70
2022-11-26T10:50:57.761Z,22.30
2022-11-26T10:51:57.739Z,22.80
2022-11-26T10:52:57.772Z,23.60
2022-11-26T10:53:57.778Z,16.00
2022-11-26T10:54:57.727Z,22.60
2022-11-26T10:55:57.699Z,20.10
2022-11-26T10:56:57.695Z,22.60
2022-11-26T10:57:57.674Z,24.30
2022-11-26T10:58:57.682Z,16.90
2022-11-26T10:59:57.713Z,19.70
2022-11-26T11:00:57.814Z,22.20
2022-11-26T11:01:57.804Z,17.40
2022-11-26T11:02:58.659Z,16.60
2022-11-26T11:04:13.076Z,20.80
2022-11-26T11:04:59.680Z,20.40
2022-11-26T11:05:57.652Z,18.10
2022-11-26T11:06:57.711Z,16.70
2022-11-26T11:07:57.690Z,24.80
2022-11-26T11:08:57.625Z,16.00
2022-11-26T11:09:57.615Z,22.70
2022-11-26T11:10:57.631Z,24.60
2022-11-26T11:11:57.653Z,23.50
2022-11-26T11:12:57.621Z,23.60
2022-11-26T11:13:57.615Z,19.30
2022-11-26T11:14:57.617Z,28.50
2022-11-26T11:15:57.687Z,25.70
2022-11-26T11:16:57.584Z,23.60
2022-11-26T11:17:57.607Z,24.00
2022-11-26T11:18:57.611Z,27.90
2022-11-26T11:19:57.682Z,24.70
2022-11-26T11:20:57.623Z,21.30
2022-11-26T11:21:57.646Z,24.30
2022-11-26T11:22:57.626Z,20.00
2022-11-26T11:24:08.641Z,20.60
2022-11-26T11:24:59.592Z,22.30
2022-11-26T11:25:57.550Z,20.30
2022-11-26T11:26:57.595Z,22.90
2022-11-26T11:27:57.569Z,29.90
2022-11-26T11:28:57.544Z,17.90
2022-11-26T11:29:57.544Z,16.50
2022-11-26T11:30:57.542Z,15.00
2022-11-26T11:31:57.696Z,17.10
2022-11-26T11:32:57.767Z,14.30
2022-11-26T11:33:57.518Z,14.30
2022-11-26T11:34:57.632Z,20.60
2022-11-26T11:35:57.651Z,17.20
2022-11-26T11:36:57.612Z,17.30
2022-11-26T11:37:57.531Z,23.40
2022-11-26T11:38:57.528Z,17.40
2022-11-26T11:39:57.487Z,20.70
2022-11-26T11:40:57.512Z,22.60
2022-11-26T11:41:57.476Z,17.60
2022-11-26T11:42:57.495Z,15.90
2022-11-26T11:43:57.466Z,22.30
2022-11-26T11:44:57.501Z,15.70
2022-11-26T11:45:57.490Z,16.00
2022-11-26T11:46:57.459Z,15.50
2022-11-26T11:47:57.450Z,15.60
2022-11-26T11:48:57.503Z,24.80
2022-11-26T11:49:57.514Z,23.50
2022-11-26T11:50:57.463Z,28.50
2022-11-26T11:51:57.437Z,28.90
2022-11-26T11:52:57.496Z,20.30
2022-11-26T11:53:57.583Z,20.50
2022-11-26T11:54:57.444Z,17.10
2022-11-26T11:56:02.261Z,22.70
2022-11-26T11:56:59.417Z,18.20
2022-11-26T11:57:57.432Z,23.80
2022-11-26T11:58:57.453Z,16.60
2022-11-26T11:59:57.411Z,22.30
2022-11-26T12:00:57.521Z,19.00
2022-11-26T12:01:57.438Z,16.30
2022-11-26T12:02:57.440Z,14.80
2022-11-26T12:03:57.446Z,17.00
2022-11-26T12:04:57.459Z,15.70
2022-11-26T12:05:57.444Z,13.30
2022-11-26T12:06:57.383Z,13.10
2022-11-26T12:07:57.616Z,16.40
2022-11-26T12:08:57.382Z,16.80
2022-11-26T12:09:57.357Z,14.40
2022-11-26T12:10:57.368Z,13.90
2022-11-26T12:11:57.437Z,19.60
2022-11-26T12:12:57.400Z,12.70
2022-11-26T12:13:57.347Z,14.70
2022-11-26T12:14:57.357Z,18.10
2022-11-26T12:15:57.329Z,17.00
2022-11-26T12:16:58.580Z,15.20
2022-11-26T12:17:57.343Z,21.10
2022-11-26T12:18:57.324Z,23.00
2022-11-26T12:19:57.338Z,23.00
2022-11-26T12:20:57.345Z,23.20
2022-11-26T12:21:57.314Z,18.50
2022-11-26T12:22:57.345Z,25.00
2022-11-26T12:23:57.295Z,24.60
2022-11-26T12:24:57.328Z,22.30
2022-11-26T12:25:57.271Z,23.90
2022-11-26T12:26:57.277Z,25.30
2022-11-26T12:27:57.273Z,32.70
2022-11-26T12:28:57.292Z,24.30
2022-11-26T12:29:57.276Z,20.50
2022-11-26T12:30:57.264Z,29.10
2022-11-26T12:31:57.329Z,25.40
2022-11-26T12:32:57.264Z,24.00
2022-11-26T12:33:57.421Z,22.20
2022-11-26T12:34:57.254Z,22.40
2022-11-26T12:35:57.232Z,19.00
2022-11-26T12:36:57.235Z,23.30
2022-11-26T12:37:57.255Z,31.00
2022-11-26T12:38:57.229Z,25.60
2022-11-26T12:39:57.266Z,22.70
2022-11-26T12:40:57.219Z,26.20
2022-11-26T12:41:57.218Z,27.40
2022-11-26T12:42:57.197Z,25.50
2022-11-26T12:43:57.203Z,28.20
2022-11-26T12:44:57.247Z,28.60
2022-11-26T12:45:57.252Z,36.40
2022-11-26T12:46:57.189Z,26.20
2022-11-26T12:47:57.220Z,23.70
2022-11-26T12:48:57.169Z,27.90